Time;durP1;ratioP1;P1;durP2;ratioP2;P2;SDS_P1;SDS_P2;PMS_P1;PMS_P2;Temp;Humidity;BMP_temperature;BMP_pressure;BME280_temperature;BME280_humidity;BME280_pressure;Samples;Min_cycle;Max_cycle;Signal;HPM_P1;HPM_P2
2022/04/02 00:01:48;;;;;;;4.27;2.83;;;2.60;99.90;;;;;;5094930;28;20657;-59
2022/04/02 00:04:14;;;;;;;3.90;2.70;;;2.50;99.90;;;;;;5076545;28;20194;-59
2022/04/02 00:06:40;;;;;;;4.83;2.60;;;2.50;99.90;;;;;;5076474;28;20179;-60
2022/04/02 00:09:05;;;;;;;6.90;2.90;;;2.50;99.90;;;;;;5094674;28;20235;-59
2022/04/02 00:11:31;;;;;;;3.77;2.43;;;2.60;99.90;;;;;;5094842;28;20640;-59
2022/04/02 00:13:58;;;;;;;3.67;2.73;;;2.60;99.90;;;;;;5094575;28;20173;-59
2022/04/02 00:16:24;;;;;;;5.60;2.73;;;2.60;99.90;;;;;;5076462;28;20173;-59
2022/04/02 00:18:50;;;;;;;4.90;2.80;;;2.60;99.90;;;;;;5094511;28;20263;-59
2022/04/02 00:21:17;;;;;;;5.90;2.63;;;2.60;99.90;;;;;;5094425;28;20184;-60
2022/04/02 00:23:46;;;;;;;3.33;2.33;;;2.60;99.90;;;;;;5094372;28;20173;-59
2022/04/02 00:26:14;;;;;;;5.57;2.70;;;2.70;99.90;;;;;;5094463;28;20182;-60
2022/04/02 00:28:41;;;;;;;5.87;2.60;;;2.70;99.90;;;;;;5094439;28;20567;-59
2022/04/02 00:31:08;;;;;;;8.40;3.00;;;2.80;99.90;;;;;;5094257;28;20179;-60
2022/04/02 00:33:35;;;;;;;5.07;2.70;;;2.80;99.90;;;;;;5094542;28;20608;-60
2022/04/02 00:36:01;;;;;;;5.93;2.87;;;2.80;99.90;;;;;;5094146;28;20201;-60
2022/04/02 00:38:26;;;;;;;5.80;2.57;;;2.80;99.90;;;;;;5076159;28;20639;-60
2022/04/02 00:40:52;;;;;;;5.50;2.53;;;2.80;99.90;;;;;;5076254;28;20194;-60
2022/04/02 00:43:25;;;;;;;5.73;2.70;;;2.80;99.90;;;;;;5094162;28;20181;-60
2022/04/02 00:45:52;;;;;;;3.90;2.50;;;2.80;99.90;;;;;;5094014;28;20204;-60
2022/04/02 00:48:19;;;;;;;5.20;2.93;;;2.80;99.90;;;;;;5093806;28;20200;-60
2022/04/02 00:50:46;;;;;;;3.70;2.70;;;2.70;99.90;;;;;;5094131;28;20213;-60
2022/04/02 00:53:13;;;;;;;6.80;2.63;;;2.80;99.90;;;;;;5094045;28;20184;-59
2022/04/02 00:55:41;;;;;;;3.73;2.50;;;2.80;99.90;;;;;;5094403;28;20181;-60
2022/04/02 00:58:09;;;;;;;5.03;2.80;;;2.80;99.90;;;;;;5094453;28;20639;-60
2022/04/02 01:00:35;;;;;;;4.47;3.00;;;2.80;99.90;;;;;;5076067;28;20637;-60
2022/04/02 01:03:01;;;;;;;4.47;2.50;;;2.70;99.90;;;;;;5093419;28;20192;-60
2022/04/02 01:05:26;;;;;;;4.77;2.57;;;2.70;99.90;;;;;;5093819;28;20205;-60
2022/04/02 01:07:53;;;;;;;6.47;2.80;;;2.70;99.90;;;;;;5093758;28;20676;-60
2022/04/02 01:10:18;;;;;;;4.03;2.73;;;2.70;99.90;;;;;;5093741;28;20185;-59
2022/04/02 01:12:45;;;;;;;3.23;2.20;;;2.70;99.90;;;;;;5093485;28;20719;-63
2022/04/02 01:15:10;;;;;;;5.70;2.70;;;2.70;99.90;;;;;;5093517;28;20196;-59
2022/04/02 01:17:40;;;;;;;4.77;2.70;;;2.70;99.90;;;;;;5093497;28;20647;-59
2022/04/02 01:20:08;;;;;;;5.27;2.60;;;2.70;99.90;;;;;;5093705;28;20182;-60
2022/04/02 01:22:34;;;;;;;4.47;2.63;;;2.70;99.90;;;;;;5093546;28;20264;-59
2022/04/02 01:25:00;;;;;;;3.77;2.50;;;2.70;99.90;;;;;;5093520;28;20197;-60
2022/04/02 01:27:26;;;;;;;7.30;2.77;;;2.70;99.90;;;;;;5093313;28;20758;-60
2022/04/02 01:29:52;;;;;;;3.43;2.50;;;2.70;99.90;;;;;;5093322;28;20672;-60
2022/04/02 01:32:17;;;;;;;3.73;2.37;;;2.70;99.90;;;;;;5093092;28;20184;-59
2022/04/02 01:34:43;;;;;;;4.93;2.37;;;2.70;99.90;;;;;;5093503;28;20188;-59
2022/04/02 01:37:12;;;;;;;4.77;2.80;;;2.70;99.90;;;;;;5093470;28;20181;-60
2022/04/02 01:39:38;;;;;;;3.83;3.10;;;2.70;99.90;;;;;;5093338;28;20177;-59
2022/04/02 01:42:06;;;;;;;3.73;2.50;;;2.70;99.90;;;;;;5093264;28;20241;-60
2022/04/02 01:44:32;;;;;;;5.40;2.80;;;2.70;99.90;;;;;;5093038;28;20192;-60
2022/04/02 01:46:58;;;;;;;3.13;2.27;;;2.70;99.90;;;;;;5093110;28;20202;-60
2022/04/02 01:49:23;;;;;;;5.47;2.83;;;2.70;99.90;;;;;;5093390;28;20525;-59
2022/04/02 01:51:49;;;;;;;3.77;2.37;;;2.60;99.90;;;;;;5093044;28;20234;-59
2022/04/02 01:54:17;;;;;;;4.40;2.40;;;2.60;99.90;;;;;;5093193;28;20188;-60
2022/04/02 01:56:42;;;;;;;2.47;2.10;;;2.60;99.90;;;;;;5093122;28;20202;-60
2022/04/02 01:59:08;;;;;;;4.47;2.10;;;2.70;99.90;;;;;;5093023;28;20206;-60
2022/04/02 02:01:34;;;;;;;3.97;2.40;;;2.60;99.90;;;;;;5092949;28;20179;-60
2022/04/02 02:03:59;;;;;;;5.13;2.40;;;2.60;99.90;;;;;;5092866;28;20604;-59
2022/04/02 02:06:25;;;;;;;4.83;2.33;;;2.70;99.90;;;;;;5093098;28;20640;-59
2022/04/02 02:08:51;;;;;;;6.67;2.40;;;2.70;99.90;;;;;;5092941;28;20213;-60
2022/04/02 02:11:16;;;;;;;5.10;2.40;;;2.70;99.90;;;;;;5092872;28;20175;-60
2022/04/02 02:13:42;;;;;;;3.40;2.50;;;2.70;99.90;;;;;;5094040;28;20176;-60
2022/04/02 02:16:08;;;;;;;3.73;2.30;;;2.70;99.90;;;;;;5097099;28;20178;-60
2022/04/02 02:18:34;;;;;;;2.77;2.30;;;2.70;99.90;;;;;;5097193;28;20180;-60
2022/04/02 02:21:00;;;;;;;5.37;2.27;;;2.70;99.90;;;;;;5097131;28;20185;-60
2022/04/02 02:23:25;;;;;;;5.23;2.40;;;2.70;99.90;;;;;;5096792;28;20170;-60
2022/04/02 02:25:51;;;;;;;4.33;2.60;;;2.70;99.90;;;;;;5097067;28;20651;-59
2022/04/02 02:28:16;;;;;;;4.47;2.17;;;2.70;99.90;;;;;;5096489;28;20202;-60
2022/04/02 02:30:42;;;;;;;7.17;2.47;;;2.70;99.90;;;;;;5096515;28;20178;-59
2022/04/02 02:35:53;;;;;;;3.30;2.50;;;2.70;99.90;;;;;;5096547;28;20234;-60
2022/04/02 02:38:23;;;;;;;3.97;2.47;;;2.60;99.90;;;;;;5096553;28;20185;-60
2022/04/02 02:40:50;;;;;;;3.70;2.50;;;2.70;99.90;;;;;;5096421;28;20166;-60
2022/04/02 02:43:17;;;;;;;3.63;2.40;;;2.70;99.90;;;;;;5096599;28;20182;-60
2022/04/02 02:45:43;;;;;;;3.67;2.07;;;2.70;99.90;;;;;;5096605;28;20185;-60
2022/04/02 02:48:09;;;;;;;4.60;2.70;;;2.70;99.90;;;;;;5096527;28;20331;-60
2022/04/02 02:50:35;;;;;;;4.57;2.30;;;2.70;99.90;;;;;;5096308;28;20189;-60
2022/04/02 02:53:02;;;;;;;3.63;2.27;;;2.70;99.90;;;;;;5096419;28;20191;-59
2022/04/02 02:55:28;;;;;;;3.33;2.57;;;2.70;99.90;;;;;;5096044;28;20180;-60
2022/04/02 02:57:54;;;;;;;5.37;2.23;;;2.70;99.90;;;;;;5096010;28;20178;-59
2022/04/02 03:00:20;;;;;;;3.37;2.33;;;2.70;99.90;;;;;;5096199;28;20171;-59
2022/04/02 03:02:46;;;;;;;6.97;2.60;;;2.60;99.90;;;;;;5096090;28;20189;-60
2022/04/02 03:05:14;;;;;;;4.10;2.67;;;2.60;99.90;;;;;;5096040;28;20284;-59
2022/04/02 03:07:51;;;;;;;4.83;2.63;;;2.70;99.90;;;;;;5095804;28;20304;-60
2022/04/02 03:10:20;;;;;;;4.33;2.33;;;2.70;99.90;;;;;;5077712;28;20178;-59
2022/04/02 03:12:47;;;;;;;4.07;2.30;;;2.60;99.90;;;;;;5095807;28;20272;-59
2022/04/02 03:15:14;;;;;;;3.53;2.63;;;2.60;99.90;;;;;;5095896;28;20260;-59
2022/04/02 03:17:40;;;;;;;3.23;2.17;;;2.60;99.90;;;;;;5095802;28;20174;-60
2022/04/02 03:20:07;;;;;;;4.13;2.63;;;2.60;99.90;;;;;;5095716;28;20247;-59
2022/04/02 03:22:35;;;;;;;4.17;2.50;;;2.60;99.90;;;;;;5095612;28;20185;-59
2022/04/02 03:25:04;;;;;;;4.53;2.40;;;2.60;99.90;;;;;;5095674;28;20598;-60
2022/04/02 03:27:29;;;;;;;3.00;2.37;;;2.50;99.90;;;;;;5095641;28;20665;-60
2022/04/02 03:29:55;;;;;;;4.20;2.03;;;2.50;99.90;;;;;;5095627;28;20183;-59
2022/04/02 03:32:21;;;;;;;6.27;2.47;;;2.50;99.90;;;;;;5095434;28;20186;-60
2022/04/02 03:34:47;;;;;;;4.47;2.00;;;2.60;99.90;;;;;;5095451;28;20662;-59
2022/04/02 03:37:13;;;;;;;4.10;2.43;;;2.50;99.90;;;;;;5095229;28;20224;-60
2022/04/02 03:39:39;;;;;;;4.30;2.10;;;2.50;99.90;;;;;;5077734;28;20181;-60
2022/04/02 03:42:05;;;;;;;6.33;2.37;;;2.50;99.90;;;;;;5095507;28;20223;-59
2022/04/02 03:44:31;;;;;;;4.83;2.03;;;2.40;99.90;;;;;;5077399;28;20185;-59
2022/04/02 03:47:08;;;;;;;4.83;2.40;;;2.50;99.90;;;;;;5095203;28;20628;-59
2022/04/02 03:49:35;;;;;;;4.60;2.33;;;2.50;99.90;;;;;;5095069;28;20174;-59
2022/04/02 03:52:01;;;;;;;3.33;2.40;;;2.50;99.90;;;;;;5095227;28;20580;-59
2022/04/02 03:54:27;;;;;;;4.93;2.40;;;2.50;99.90;;;;;;5095192;28;20173;-59
2022/04/02 03:56:53;;;;;;;4.43;2.43;;;2.50;99.90;;;;;;5095355;28;20192;-60
2022/04/02 03:59:18;;;;;;;3.20;2.33;;;2.50;99.90;;;;;;5094940;28;20177;-59
2022/04/02 04:01:44;;;;;;;5.93;2.60;;;2.40;99.90;;;;;;5076968;28;20177;-60
2022/04/02 04:04:10;;;;;;;2.60;2.00;;;2.50;99.90;;;;;;5095060;28;20284;-60
2022/04/02 04:06:37;;;;;;;3.90;2.17;;;2.50;99.90;;;;;;5094634;28;20177;-60
2022/04/02 04:09:04;;;;;;;3.17;2.20;;;2.50;99.90;;;;;;5094809;28;20197;-60
2022/04/02 04:11:29;;;;;;;4.77;2.93;;;2.50;99.90;;;;;;5094826;28;20205;-59
2022/04/02 04:13:56;;;;;;;4.27;2.30;;;2.50;99.90;;;;;;5076595;28;20227;-59
2022/04/02 04:16:22;;;;;;;5.47;2.37;;;2.50;99.90;;;;;;5094642;28;20266;-60
2022/04/02 04:18:48;;;;;;;3.63;2.23;;;2.50;99.90;;;;;;5094400;28;20637;-59
2022/04/02 04:21:14;;;;;;;3.93;2.07;;;2.50;99.90;;;;;;5094646;28;20182;-59
2022/04/02 04:23:43;;;;;;;3.27;1.90;;;2.40;99.90;;;;;;5094594;28;20170;-59
2022/04/02 04:26:09;;;;;;;3.43;2.17;;;2.40;99.90;;;;;;5094518;28;20173;-59
2022/04/02 04:28:36;;;;;;;4.27;2.13;;;2.40;99.90;;;;;;5094346;28;20343;-59
2022/04/02 04:31:02;;;;;;;3.33;1.90;;;2.40;99.90;;;;;;5094358;28;20217;-60
2022/04/02 04:33:28;;;;;;;5.27;2.00;;;2.40;99.90;;;;;;5094390;28;20185;-59
2022/04/02 04:35:54;;;;;;;2.60;2.03;;;2.40;99.90;;;;;;5094084;28;20504;-59
2022/04/02 04:38:20;;;;;;;2.17;1.87;;;2.40;99.90;;;;;;5094532;28;20188;-61
2022/04/02 04:40:45;;;;;;;4.37;1.90;;;2.40;99.90;;;;;;5094249;28;20180;-60
2022/04/02 04:43:11;;;;;;;3.40;2.00;;;2.40;99.90;;;;;;5094639;28;20183;-60
2022/04/02 04:45:37;;;;;;;5.13;1.97;;;2.40;99.90;;;;;;5094499;28;20174;-60
2022/04/02 04:48:03;;;;;;;2.80;2.00;;;2.40;99.90;;;;;;5093881;28;20204;-60
2022/04/02 04:50:29;;;;;;;2.47;1.90;;;2.30;99.90;;;;;;5094156;28;20185;-60
2022/04/02 04:52:54;;;;;;;2.73;2.10;;;2.30;99.90;;;;;;5093975;28;20234;-60
2022/04/02 04:55:20;;;;;;;3.30;2.10;;;2.30;99.90;;;;;;5094010;28;20184;-59
2022/04/02 04:57:48;;;;;;;2.97;2.20;;;2.30;99.90;;;;;;5093818;28;20181;-60
2022/04/02 05:00:15;;;;;;;3.23;1.83;;;2.40;99.90;;;;;;5093891;28;20260;-59
2022/04/02 05:02:44;;;;;;;3.37;2.10;;;2.40;99.90;;;;;;5093710;28;20689;-58
2022/04/02 05:05:12;;;;;;;4.00;2.20;;;2.30;99.90;;;;;;5093937;28;20221;-58
2022/04/02 05:07:39;;;;;;;3.73;2.40;;;2.30;99.90;;;;;;5093654;28;20305;-60
2022/04/02 05:10:06;;;;;;;3.20;2.07;;;2.30;99.90;;;;;;5093706;28;20188;-58
2022/04/02 05:12:32;;;;;;;3.93;2.13;;;2.30;99.90;;;;;;5075751;28;20226;-58
2022/04/02 05:14:58;;;;;;;3.60;2.00;;;2.30;99.90;;;;;;5093495;28;20174;-58
2022/04/02 05:17:24;;;;;;;4.70;2.03;;;2.20;99.90;;;;;;5093460;28;20177;-58
2022/04/02 05:19:51;;;;;;;2.40;2.00;;;2.20;99.90;;;;;;5093538;28;20181;-58
2022/04/02 05:22:16;;;;;;;2.90;2.13;;;2.30;99.90;;;;;;5093319;28;20182;-58
2022/04/02 05:24:42;;;;;;;4.07;2.20;;;2.20;99.90;;;;;;5093405;28;20179;-58
2022/04/02 05:27:09;;;;;;;3.87;2.20;;;2.20;99.90;;;;;;5093218;28;20207;-58
2022/04/02 05:29:35;;;;;;;4.73;2.20;;;2.20;99.90;;;;;;5093243;28;20197;-58
2022/04/02 05:32:02;;;;;;;2.80;1.93;;;2.20;99.90;;;;;;5093048;28;20234;-58
2022/04/02 05:34:28;;;;;;;2.40;1.87;;;2.20;99.90;;;;;;5093350;28;20180;-58
2022/04/02 05:36:54;;;;;;;3.70;2.10;;;2.20;99.90;;;;;;5093304;28;20172;-58
2022/04/02 05:39:19;;;;;;;7.40;2.27;;;2.20;99.90;;;;;;5075138;28;20244;-58
2022/04/02 05:41:46;;;;;;;2.63;2.13;;;2.30;99.90;;;;;;5075133;28;20188;-59
2022/04/02 05:44:11;;;;;;;6.07;2.30;;;2.30;99.90;;;;;;5092993;28;20718;-58
2022/04/02 05:46:37;;;;;;;4.17;2.37;;;2.20;99.90;;;;;;5092956;28;20181;-58
2022/04/02 05:49:04;;;;;;;5.00;2.50;;;2.30;99.90;;;;;;5095035;28;20189;-58
2022/04/02 05:51:30;;;;;;;3.20;2.20;;;2.20;99.90;;;;;;5097443;28;20310;-58
2022/04/02 05:53:57;;;;;;;2.60;2.10;;;2.20;99.90;;;;;;5079168;28;20182;-58
2022/04/02 05:56:23;;;;;;;3.20;1.90;;;2.20;99.90;;;;;;5097194;28;20527;-58
2022/04/02 05:58:51;;;;;;;2.70;2.03;;;2.20;99.90;;;;;;5097101;28;20180;-58
2022/04/02 06:01:17;;;;;;;5.43;2.07;;;2.30;99.90;;;;;;5097327;28;20173;-58
2022/04/02 06:03:43;;;;;;;4.37;1.50;;;2.30;99.90;;;;;;5097057;28;20636;-59
2022/04/02 06:06:09;;;;;;;2.50;1.60;;;2.30;99.90;;;;;;5093836;28;20220;-59
2022/04/02 06:08:35;;;;;;;3.00;2.33;;;2.30;99.90;;;;;;5077932;28;20209;-58
2022/04/02 06:11:01;;;;;;;2.87;2.00;;;2.40;99.90;;;;;;5096401;28;20222;-59
2022/04/02 06:13:27;;;;;;;2.70;2.10;;;2.40;99.90;;;;;;5078488;28;20226;-58
2022/04/02 06:15:54;;;;;;;3.30;2.10;;;2.50;99.90;;;;;;5096669;28;20668;-58
2022/04/02 06:18:20;;;;;;;3.07;2.23;;;2.60;99.90;;;;;;5096298;28;20190;-58
2022/04/02 06:20:47;;;;;;;2.70;2.00;;;2.60;99.90;;;;;;5096297;28;20181;-58
2022/04/02 06:23:13;;;;;;;3.83;2.07;;;2.60;99.90;;;;;;5080279;28;20180;-58
2022/04/02 06:25:39;;;;;;;4.07;2.10;;;2.60;99.90;;;;;;5096020;28;20181;-58
2022/04/02 06:28:06;;;;;;;3.23;2.10;;;2.60;99.90;;;;;;5095784;28;20198;-59
2022/04/02 06:30:31;;;;;;;3.93;2.07;;;2.60;99.90;;;;;;5096388;28;20177;-59
2022/04/02 06:32:57;;;;;;;4.03;1.97;;;2.70;99.90;;;;;;5096270;28;20185;-59
2022/04/02 06:35:24;;;;;;;5.37;1.97;;;2.70;99.90;;;;;;5096593;28;20177;-59
2022/04/02 06:37:50;;;;;;;4.63;2.23;;;2.70;99.90;;;;;;5096831;28;20540;-59
2022/04/02 06:40:16;;;;;;;7.90;5.70;;;2.70;99.90;;;;;;5096720;28;20226;-58
2022/04/02 06:42:43;;;;;;;3.23;2.43;;;2.80;99.90;;;;;;5096330;28;20173;-58
2022/04/02 06:45:09;;;;;;;3.43;2.53;;;3.00;99.90;;;;;;5096359;28;20625;-60
2022/04/02 06:47:35;;;;;;;3.20;1.90;;;3.10;99.90;;;;;;5096007;28;20224;-59
2022/04/02 06:50:06;;;;;;;4.93;2.20;;;3.00;99.90;;;;;;5096288;28;20239;-58
2022/04/02 06:52:32;;;;;;;4.30;2.70;;;3.00;99.90;;;;;;5096248;28;20177;-58
2022/04/02 06:54:58;;;;;;;7.57;5.13;;;3.20;99.90;;;;;;5095973;28;20169;-59
2022/04/02 06:57:23;;;;;;;6.37;3.90;;;3.20;99.90;;;;;;5095988;28;20275;-58
2022/04/02 06:59:49;;;;;;;4.70;3.50;;;3.20;99.90;;;;;;5095378;28;20651;-58
2022/04/02 07:02:20;;;;;;;8.60;7.70;;;3.20;99.90;;;;;;5095896;28;20194;-58
2022/04/02 07:04:46;;;;;;;7.27;3.00;;;3.40;99.90;;;;;;5095827;28;20193;-58
2022/04/02 07:07:12;;;;;;;2.83;2.60;;;3.30;99.90;;;;;;5084208;28;20745;-58
2022/04/02 07:09:38;;;;;;;4.00;3.30;;;3.40;99.90;;;;;;5057419;28;20186;-58
2022/04/02 07:12:05;;;;;;;16.90;11.77;;;3.40;99.90;;;;;;5075551;28;20169;-58
2022/04/02 07:14:30;;;;;;;14.53;10.63;;;3.40;99.90;;;;;;5075565;28;20174;-58
2022/04/02 07:16:56;;;;;;;3.63;3.13;;;3.50;99.90;;;;;;5075198;28;20171;-58
2022/04/02 07:19:23;;;;;;;4.00;2.50;;;3.50;99.90;;;;;;5075333;28;20212;-58
2022/04/02 07:21:53;;;;;;;5.13;2.63;;;3.60;99.90;;;;;;5075091;28;20182;-56
2022/04/02 07:24:20;;;;;;;5.67;3.10;;;3.70;99.90;;;;;;5074163;28;20316;-58
2022/04/02 07:26:46;;;;;;;3.17;2.20;;;3.70;99.90;;;;;;5057494;28;20171;-58
2022/04/02 07:29:14;;;;;;;3.90;2.63;;;3.80;99.90;;;;;;5075346;28;20235;-58
2022/04/02 07:31:40;;;;;;;3.57;2.40;;;3.80;99.90;;;;;;5075490;28;20184;-58
2022/04/02 07:34:06;;;;;;;4.10;2.90;;;3.80;99.90;;;;;;5075240;28;20178;-58
2022/04/02 07:36:53;;;;;;;3.27;2.50;;;3.80;99.90;;;;;;5075125;28;20186;-57
2022/04/02 07:39:23;;;;;;;4.13;2.80;;;4.00;99.90;;;;;;5075408;28;20169;-58
2022/04/02 07:42:11;;;;;;;5.60;2.47;;;4.30;99.90;;;;;;5075136;28;20606;-57
2022/04/02 07:44:39;;;;;;;3.50;3.13;;;4.40;99.90;;;;;;5075073;28;20533;-57
2022/04/02 07:47:06;;;;;;;2.70;2.33;;;4.70;99.90;;;;;;5074810;28;20202;-58
2022/04/02 07:49:38;;;;;;;4.10;2.60;;;4.80;99.90;;;;;;5075018;28;20217;-58
2022/04/02 07:52:05;;;;;;;5.23;2.83;;;4.80;99.90;;;;;;5075042;28;20252;-58
2022/04/02 07:54:37;;;;;;;3.37;2.70;;;4.80;99.90;;;;;;5074988;28;20187;-57
2022/04/02 07:57:03;;;;;;;3.63;2.40;;;4.90;99.90;;;;;;5074853;28;20176;-57
2022/04/02 07:59:38;;;;;;;5.07;2.70;;;4.90;99.90;;;;;;5074662;28;20182;-58
2022/04/02 08:02:36;;;;;;;5.50;2.80;;;5.10;99.90;;;;;;5074621;28;20173;-58
2022/04/02 08:04:53;;;;;;;3.90;2.40;;;5.10;99.90;;;;;;5074435;28;20207;-58
2022/04/02 08:07:19;;;;;;;3.43;2.50;;;5.20;99.90;;;;;;5074545;28;20208;-58
2022/04/02 08:09:45;;;;;;;4.00;2.93;;;5.30;99.90;;;;;;5074517;28;20178;-58
2022/04/02 08:12:12;;;;;;;4.03;2.40;;;5.40;99.90;;;;;;5073561;28;20274;-58
2022/04/02 08:14:39;;;;;;;3.50;2.80;;;5.40;99.90;;;;;;5074476;28;20189;-58
2022/04/02 08:17:07;;;;;;;4.83;2.60;;;5.50;99.90;;;;;;5074577;28;20193;-58
2022/04/02 08:19:36;;;;;;;2.73;2.17;;;5.50;99.90;;;;;;5074243;28;20721;-59
2022/04/02 08:22:02;;;;;;;5.22;4.72;;;5.40;99.90;;;;;;5074149;28;20537;-58
2022/04/02 08:24:27;;;;;;;2.80;2.40;;;5.30;99.90;;;;;;5054498;28;20222;-58
2022/04/02 08:27:22;;;;;;;5.72;2.33;;;5.30;99.90;;;;;;5074431;28;20416;-58
2022/04/02 08:30:03;;;;;;;3.50;2.33;;;5.40;99.90;;;;;;5066634;28;20617;-58
2022/04/02 08:32:49;;;;;;;3.03;2.30;;;5.50;99.90;;;;;;5073770;28;20181;-51
2022/04/02 08:35:23;;;;;;;3.67;2.28;;;5.60;99.90;;;;;;5032825;28;20679;-58
2022/04/02 08:38:04;;;;;;;2.03;1.83;;;5.60;99.90;;;;;;5074180;28;20184;-58
2022/04/02 08:40:54;;;;;;;2.95;2.13;;;5.50;99.90;;;;;;5074046;28;20257;-58
2022/04/02 08:43:55;;;;;;;4.28;2.35;;;5.70;99.90;;;;;;5073820;28;20178;-58
2022/04/02 08:46:36;;;;;;;3.47;2.20;;;5.90;99.60;;;;;;5056072;28;20302;-58
2022/04/02 08:49:43;;;;;;;4.23;2.10;;;6.00;99.60;;;;;;5073572;28;20216;-58
2022/04/02 08:52:15;;;;;;;2.50;1.70;;;6.10;99.50;;;;;;5062902;28;20193;-58
2022/04/02 08:55:05;;;;;;;3.58;2.17;;;6.00;99.50;;;;;;5073849;28;20177;-58
2022/04/02 08:57:41;;;;;;;2.40;2.20;;;6.10;99.90;;;;;;5073484;28;20183;-58
2022/04/02 09:00:09;;;;;;;3.00;2.20;;;6.00;99.10;;;;;;5073553;28;20166;-58
2022/04/02 09:02:53;;;;;;;3.78;2.30;;;6.10;99.90;;;;;;5073573;28;20547;-58
2022/04/02 09:05:28;;;;;;;4.35;3.60;;;6.30;99.90;;;;;;5073361;28;20185;-58
2022/04/02 09:08:06;;;;;;;4.50;3.42;;;6.60;99.40;;;;;;5073376;28;20208;-58
2022/04/02 09:10:45;;;;;;;6.72;2.90;;;6.70;99.90;;;;;;5073142;28;20198;-59
2022/04/02 09:13:42;;;;;;;3.80;2.78;;;6.80;98.60;;;;;;5071900;28;20177;-59
2022/04/02 09:16:10;;;;;;;4.40;2.97;;;7.00;99.80;;;;;;5073406;28;20174;-58
2022/04/02 09:19:06;;;;;;;5.45;3.35;;;6.90;99.30;;;;;;5073246;28;20243;-58
2022/04/02 09:22:02;;;;;;;3.90;3.28;;;7.00;99.60;;;;;;5031963;28;20193;-58
2022/04/02 09:24:59;;;;;;;3.20;2.28;;;6.90;99.90;;;;;;5038314;28;20185;-59
2022/04/02 09:27:57;;;;;;;5.57;2.78;;;6.70;97.60;;;;;;5073381;28;20244;-58
2022/04/02 09:30:32;;;;;;;4.00;2.50;;;6.50;98.80;;;;;;5073246;28;20170;-59
2022/04/02 09:33:07;;;;;;;5.03;2.33;;;6.20;96.90;;;;;;5073217;28;20189;-58
2022/04/02 09:35:36;;;;;;;4.07;3.73;;;5.90;98.00;;;;;;5054998;28;20178;-58
2022/04/02 09:38:17;;;;;;;6.17;5.57;;;5.60;98.60;;;;;;5073237;28;20212;-59
2022/04/02 09:40:48;;;;;;;3.40;2.63;;;5.60;99.10;;;;;;5073166;28;20173;-58
2022/04/02 09:43:27;;;;;;;3.03;2.40;;;5.60;99.70;;;;;;5073024;28;20257;-59
2022/04/02 09:46:10;;;;;;;2.95;2.60;;;5.70;99.80;;;;;;5072939;28;20176;-58
2022/04/02 09:49:00;;;;;;;4.73;2.60;;;5.70;99.70;;;;;;5073050;28;20576;-59
2022/04/02 09:51:34;;;;;;;4.83;2.53;;;5.60;99.90;;;;;;5061327;28;20194;-59
2022/04/02 09:54:13;;;;;;;3.05;2.58;;;5.50;99.90;;;;;;5072854;28;20216;-59
2022/04/02 09:56:50;;;;;;;2.77;2.17;;;5.70;99.90;;;;;;5073093;28;20178;-58
2022/04/02 09:59:19;;;;;;;3.13;2.65;;;5.90;99.70;;;;;;5073066;28;20260;-58
2022/04/02 10:01:54;;;;;;;4.65;2.60;;;6.30;99.90;;;;;;5072753;28;20628;-59
2022/04/02 10:04:47;;;;;;;3.53;2.42;;;6.70;98.50;;;;;;5072701;28;20233;-58
2022/04/02 10:07:42;;;;;;;3.05;2.38;;;7.00;97.30;;;;;;5072814;28;20271;-58
2022/04/02 10:10:08;;;;;;;3.50;2.40;;;7.10;94.30;;;;;;5072369;28;20192;-59
2022/04/02 10:12:39;;;;;;;3.85;2.72;;;7.10;94.50;;;;;;5054734;28;20657;-59
2022/04/02 10:15:05;;;;;;;8.07;7.38;;;6.80;95.80;;;;;;5072608;28;20202;-59
2022/04/02 10:17:32;;;;;;;4.43;2.50;;;6.60;97.50;;;;;;5072853;28;20678;-59
2022/04/02 10:19:59;;;;;;;6.43;3.33;;;6.20;98.00;;;;;;5073331;28;20171;-59
2022/04/02 10:22:44;;;;;;;3.63;2.42;;;6.00;98.40;;;;;;5073304;28;20175;-59
2022/04/02 10:25:12;;;;;;;3.30;3.00;;;6.00;99.00;;;;;;5072662;28;20282;-59
2022/04/02 10:27:40;;;;;;;3.15;2.25;;;6.10;98.10;;;;;;5072477;28;20206;-59
2022/04/02 10:30:07;;;;;;;3.67;2.90;;;6.40;98.90;;;;;;5072777;28;20189;-59
2022/04/02 10:32:39;;;;;;;3.00;2.70;;;6.60;97.40;;;;;;5072796;28;20178;-59
2022/04/02 10:35:11;;;;;;;6.53;2.80;;;6.70;95.90;;;;;;5074487;28;20178;-59
2022/04/02 10:37:51;;;;;;;6.17;2.87;;;6.50;94.30;;;;;;5076210;28;20209;-58
2022/04/02 10:40:19;;;;;;;2.63;2.03;;;6.40;97.50;;;;;;5076485;28;20163;-59
2022/04/02 10:42:55;;;;;;;4.53;3.20;;;6.80;97.10;;;;;;5076344;28;20171;-58
2022/04/02 10:45:22;;;;;;;3.38;2.55;;;7.20;96.00;;;;;;5076180;28;20193;-59
2022/04/02 10:47:57;;;;;;;3.85;2.15;;;7.20;93.40;;;;;;5076069;28;20427;-59
2022/04/02 10:50:24;;;;;;;4.85;3.20;;;6.80;93.40;;;;;;5076009;28;20643;-59
2022/04/02 10:52:51;;;;;;;4.28;2.97;;;6.40;93.60;;;;;;5075924;28;20183;-59
2022/04/02 10:55:18;;;;;;;2.65;2.45;;;6.60;95.20;;;;;;5076092;28;20181;-59
2022/04/02 10:57:44;;;;;;;2.10;1.77;;;6.80;93.70;;;;;;5076062;28;20264;-59
2022/04/02 11:00:11;;;;;;;5.95;3.42;;;7.00;92.10;;;;;;5058044;28;20224;-59
2022/04/02 11:02:49;;;;;;;4.20;2.92;;;6.60;92.50;;;;;;5075931;28;20175;-59
2022/04/02 11:05:17;;;;;;;5.25;3.00;;;6.50;85.00;;;;;;5075983;28;20280;-58
2022/04/02 11:07:45;;;;;;;4.05;2.70;;;6.50;88.70;;;;;;5075744;28;20241;-59
2022/04/02 11:10:14;;;;;;;2.75;1.50;;;6.50;87.10;;;;;;5075826;28;20193;-59
2022/04/02 11:12:42;;;;;;;1.73;1.50;;;6.70;89.80;;;;;;5075689;28;20186;-59
2022/04/02 11:15:14;;;;;;;2.42;1.80;;;6.60;81.80;;;;;;5075653;28;20269;-59
2022/04/02 11:17:48;;;;;;;2.28;1.73;;;6.60;85.50;;;;;;5075461;28;20311;-59
2022/04/02 11:20:22;;;;;;;2.50;1.52;;;6.40;82.30;;;;;;5075793;28;20675;-59
2022/04/02 11:22:51;;;;;;;1.77;1.50;;;6.30;78.20;;;;;;5075613;28;20165;-50
2022/04/02 11:25:36;;;;;;;2.58;1.77;;;6.30;86.20;;;;;;5075516;28;20216;-58
2022/04/02 11:28:05;;;;;;;2.72;1.90;;;6.40;81.70;;;;;;5075300;28;20209;-58
2022/04/02 11:30:32;;;;;;;2.70;1.92;;;6.90;80.80;;;;;;5075554;28;20206;-58
2022/04/02 11:33:18;;;;;;;2.40;2.03;;;7.10;77.90;;;;;;5075521;28;20641;-58
2022/04/02 11:35:57;;;;;;;2.72;2.38;;;7.00;75.30;;;;;;5075231;28;20173;-58
2022/04/02 11:38:39;;;;;;;3.05;2.20;;;7.20;81.80;;;;;;5075143;28;20260;-59
2022/04/02 11:41:40;;;;;;;2.90;2.70;;;7.50;88.20;;;;;;5075648;28;20173;-59
2022/04/02 11:44:07;;;;;;;3.00;2.50;;;7.40;83.10;;;;;;5030278;28;20185;-58
2022/04/02 11:46:54;;;;;;;2.45;2.08;;;6.90;86.50;;;;;;5073764;28;20188;-58
2022/04/02 11:49:31;;;;;;;3.13;2.42;;;7.20;84.30;;;;;;5057167;28;20194;-59
2022/04/02 11:52:02;;;;;;;2.92;2.33;;;7.40;87.00;;;;;;5075076;28;20162;-59
2022/04/02 11:54:27;;;;;;;2.13;1.75;;;7.50;85.40;;;;;;5074854;28;20648;-58
2022/04/02 11:57:09;;;;;;;2.42;2.17;;;7.30;82.40;;;;;;5074824;28;20185;-58
2022/04/02 11:59:38;;;;;;;2.10;1.80;;;6.90;82.20;;;;;;5075013;28;20177;-58
2022/04/02 12:02:04;;;;;;;3.20;1.92;;;6.90;89.10;;;;;;5074731;28;20272;-58
2022/04/02 12:04:31;;;;;;;2.78;2.10;;;6.90;86.10;;;;;;5040129;28;20197;-58
2022/04/02 12:07:08;;;;;;;4.85;1.80;;;6.90;81.20;;;;;;5074568;28;20175;-59
2022/04/02 12:09:46;;;;;;;3.22;1.63;;;6.90;80.20;;;;;;5074507;28;20177;-58
2022/04/02 12:12:22;;;;;;;3.13;2.00;;;6.80;78.30;;;;;;5056837;28;20181;-59
2022/04/02 12:14:48;;;;;;;2.47;1.90;;;7.20;81.20;;;;;;5074839;28;20170;-58
2022/04/02 12:17:15;;;;;;;2.00;1.80;;;7.00;77.00;;;;;;5056615;28;20629;-59
2022/04/02 12:19:45;;;;;;;3.10;2.80;;;6.70;79.50;;;;;;5074676;28;20178;-58
2022/04/02 12:22:31;;;;;;;4.25;2.63;;;6.70;78.20;;;;;;5074160;28;20629;-59
2022/04/02 12:25:01;;;;;;;3.15;2.10;;;6.60;80.60;;;;;;5074456;28;20224;-59
2022/04/02 12:27:32;;;;;;;3.92;2.30;;;6.50;73.10;;;;;;5074144;28;20209;-58
2022/04/02 12:30:00;;;;;;;3.00;2.70;;;6.60;78.90;;;;;;5074260;28;20533;-58
2022/04/02 12:32:31;;;;;;;2.60;2.40;;;6.70;82.90;;;;;;5074314;28;20732;-58
2022/04/02 12:35:03;;;;;;;4.10;2.72;;;6.90;82.70;;;;;;5074100;28;20253;-59
2022/04/02 12:37:46;;;;;;;4.15;2.97;;;7.10;76.40;;;;;;5074365;28;20236;-59
2022/04/02 12:40:16;;;;;;;2.55;2.30;;;7.50;74.20;;;;;;5055992;28;20178;-58
2022/04/02 12:42:44;;;;;;;2.72;2.53;;;8.00;74.60;;;;;;5073858;28;20689;-59
2022/04/02 12:45:17;;;;;;;4.35;3.75;;;8.30;69.70;;;;;;5055844;28;20247;-59
2022/04/02 12:48:11;;;;;;;3.15;2.85;;;8.30;71.10;;;;;;5073720;28;20208;-59
2022/04/02 12:50:59;;;;;;;2.08;1.88;;;7.90;72.00;;;;;;5073822;28;20185;-58
2022/04/02 12:53:27;;;;;;;3.85;2.53;;;7.60;73.40;;;;;;5073542;28;20170;-59
2022/04/02 12:55:53;;;;;;;3.78;3.13;;;7.10;79.50;;;;;;5073875;28;20178;-59
2022/04/02 12:58:36;;;;;;;4.55;2.78;;;7.00;81.90;;;;;;5073383;28;20192;-58
2022/04/02 13:01:25;;;;;;;3.65;2.40;;;7.10;87.40;;;;;;5055738;28;20518;-58
2022/04/02 13:04:04;;;;;;;5.32;2.92;;;7.30;83.90;;;;;;5073087;28;20197;-58
2022/04/02 13:06:39;;;;;;;3.30;2.70;;;7.40;85.60;;;;;;5073036;28;20173;-59
2022/04/02 13:09:19;;;;;;;6.20;3.38;;;7.20;78.50;;;;;;5073603;28;20209;-58
2022/04/02 13:11:57;;;;;;;5.30;3.38;;;7.10;81.20;;;;;;5055616;28;20173;-58
2022/04/02 13:14:29;;;;;;;6.95;3.80;;;7.10;79.60;;;;;;5073251;28;20182;-59
2022/04/02 13:17:06;;;;;;;3.90;2.38;;;7.10;80.70;;;;;;5073673;28;20170;-58